Time;durP1;ratioP1;P1;durP2;ratioP2;P2;SDS_P1;SDS_P2;PMS_P1;PMS_P2;Temp;Humidity;BMP_temperature;BMP_pressure;BME280_temperature;BME280_humidity;BME280_pressure;Samples;Min_cycle;Max_cycle;Signal;HPM_P1;HPM_P2
2022/03/29 00:02:12;;;;;;;9.32;4.28;;;;;;;;;;7393231;19;20070;-78
2022/03/29 00:04:37;;;;;;;8.52;4.55;;;;;;;;;;7394726;19;20466;-82
2022/03/29 00:07:03;;;;;;;7.47;4.35;;;;;;;;;;7391763;19;20012;-77
2022/03/29 00:09:28;;;;;;;10.80;3.92;;;;;;;;;;7388813;19;20015;-78
2022/03/29 00:11:53;;;;;;;9.15;3.97;;;;;;;;;;7394336;19;20040;-77
2022/03/29 00:14:19;;;;;;;8.98;4.45;;;;;;;;;;7392353;19;20035;-78
2022/03/29 00:16:44;;;;;;;9.50;3.85;;;;;;;;;;7393082;19;20037;-78
2022/03/29 00:19:10;;;;;;;10.52;4.00;;;;;;;;;;7391302;19;20122;-78
2022/03/29 00:21:35;;;;;;;6.93;4.13;;;;;;;;;;7393508;19;20474;-78
2022/03/29 00:24:01;;;;;;;9.02;4.45;;;;;;;;;;7396013;19;20006;-77
2022/03/29 00:26:27;;;;;;;11.68;4.40;;;;;;;;;;7399680;19;20014;-77
2022/03/29 00:28:53;;;;;;;12.40;4.53;;;;;;;;;;7397364;19;20490;-79
2022/03/29 00:31:19;;;;;;;6.07;3.60;;;;;;;;;;7398396;19;20010;-79
2022/03/29 00:33:46;;;;;;;12.05;4.30;;;;;;;;;;7396609;19;20027;-79
2022/03/29 00:36:12;;;;;;;13.93;4.88;;;;;;;;;;7399174;19;20506;-78
2022/03/29 00:38:37;;;;;;;10.98;5.13;;;;;;;;;;7395617;19;20464;-78
2022/03/29 00:41:03;;;;;;;7.88;4.07;;;;;;;;;;7395980;19;19998;-79
2022/03/29 00:43:28;;;;;;;12.25;4.43;;;;;;;;;;7395550;19;20084;-78
2022/03/29 00:45:54;;;;;;;8.85;4.30;;;;;;;;;;7396896;19;20028;-77
2022/03/29 00:48:19;;;;;;;5.93;3.35;;;;;;;;;;7391817;19;20054;-79
2022/03/29 00:50:45;;;;;;;11.95;4.43;;;;;;;;;;7394154;19;20414;-78
2022/03/29 00:53:11;;;;;;;8.80;4.15;;;;;;;;;;7393448;19;20109;-78
2022/03/29 00:55:37;;;;;;;8.55;4.10;;;;;;;;;;7395689;19;19998;-78
2022/03/29 00:58:04;;;;;;;8.48;4.35;;;;;;;;;;7396846;19;20018;-79
2022/03/29 01:00:33;;;;;;;11.38;3.85;;;;;;;;;;7392502;19;20423;-79
2022/03/29 01:03:03;;;;;;;7.25;3.83;;;;;;;;;;7397532;19;20308;-78
2022/03/29 01:05:31;;;;;;;8.32;4.15;;;;;;;;;;7397247;19;20010;-79
2022/03/29 01:07:57;;;;;;;7.03;3.58;;;;;;;;;;7395880;19;20014;-78
2022/03/29 01:10:23;;;;;;;8.73;4.00;;;;;;;;;;7392224;19;20010;-79
2022/03/29 01:12:49;;;;;;;6.80;3.42;;;;;;;;;;7397041;19;20422;-78
2022/03/29 01:15:16;;;;;;;7.20;3.30;;;;;;;;;;7397150;19;20038;-79
2022/03/29 01:17:43;;;;;;;7.72;3.92;;;;;;;;;;7394245;19;20006;-79
2022/03/29 01:20:12;;;;;;;6.60;3.90;;;;;;;;;;7392361;19;20010;-79
2022/03/29 01:22:46;;;;;;;11.25;4.15;;;;;;;;;;7396818;19;19999;-78
2022/03/29 01:25:30;;;;;;;12.87;4.27;;;;;;;;;;7395309;19;20019;-78
2022/03/29 01:27:57;;;;;;;10.75;3.55;;;;;;;;;;7395493;19;20028;-79
2022/03/29 01:30:22;;;;;;;8.05;3.85;;;;;;;;;;7393303;19;20096;-79
2022/03/29 01:32:50;;;;;;;8.60;4.35;;;;;;;;;;7393996;19;20002;-79
2022/03/29 01:35:17;;;;;;;6.28;2.85;;;;;;;;;;7393778;19;20477;-79
2022/03/29 01:37:42;;;;;;;8.27;3.60;;;;;;;;;;7393503;19;20003;-78
2022/03/29 01:40:13;;;;;;;9.50;3.50;;;;;;;;;;7391832;19;20353;-78
2022/03/29 01:42:50;;;;;;;9.30;4.07;;;;;;;;;;7393334;19;20038;-79
2022/03/29 01:45:16;;;;;;;7.82;4.38;;;;;;;;;;7396334;19;20047;-79
2022/03/29 01:47:41;;;;;;;6.38;3.70;;;;;;;;;;7395994;19;20017;-79
2022/03/29 01:50:08;;;;;;;7.43;4.03;;;;;;;;;;7393823;19;20006;-78
2022/03/29 01:52:45;;;;;;;7.57;3.75;;;;;;;;;;7384655;19;20032;-78
2022/03/29 01:55:11;;;;;;;8.30;4.20;;;;;;;;;;7392034;19;20013;-78
2022/03/29 01:57:37;;;;;;;7.88;4.05;;;;;;;;;;7392060;19;20026;-77
2022/03/29 02:02:49;;;;;;;9.05;3.92;;;;;;;;;;7387656;19;20040;-77
2022/03/29 02:05:14;;;;;;;10.90;4.20;;;;;;;;;;7393438;19;20051;-78
2022/03/29 02:07:39;;;;;;;8.38;4.03;;;;;;;;;;7389141;19;21179;-78
2022/03/29 02:10:06;;;;;;;7.00;3.50;;;;;;;;;;7388338;19;20344;-77
2022/03/29 02:12:33;;;;;;;8.35;3.25;;;;;;;;;;7390968;19;20011;-77
2022/03/29 02:14:58;;;;;;;8.15;3.75;;;;;;;;;;7396696;19;20025;-78
2022/03/29 02:17:23;;;;;;;8.90;3.60;;;;;;;;;;7394125;19;20002;-77
2022/03/29 02:19:49;;;;;;;11.75;4.10;;;;;;;;;;7394052;19;20050;-79
2022/03/29 02:22:14;;;;;;;6.15;3.42;;;;;;;;;;7396505;19;20018;-77
2022/03/29 02:24:39;;;;;;;9.93;4.03;;;;;;;;;;7416426;19;20013;-79
2022/03/29 02:27:04;;;;;;;5.97;3.72;;;;;;;;;;7427189;19;19987;-79
2022/03/29 02:29:30;;;;;;;7.13;3.38;;;;;;;;;;7424507;19;20003;-79
2022/03/29 02:31:55;;;;;;;6.55;3.90;;;;;;;;;;7419112;19;20010;-78
2022/03/29 02:34:21;;;;;;;6.07;3.60;;;;;;;;;;7419951;19;20013;-78
2022/03/29 02:36:46;;;;;;;11.90;4.18;;;;;;;;;;7414277;19;20002;-79
2022/03/29 02:39:12;;;;;;;8.70;4.22;;;;;;;;;;7406865;19;20003;-79
2022/03/29 02:41:37;;;;;;;9.00;3.67;;;;;;;;;;7404038;19;20006;-78
2022/03/29 02:44:03;;;;;;;11.23;3.70;;;;;;;;;;7408762;19;20324;-78
2022/03/29 02:46:28;;;;;;;6.25;3.53;;;;;;;;;;7402557;19;20014;-77
2022/03/29 02:48:53;;;;;;;5.88;3.55;;;;;;;;;;7397077;19;19999;-77
2022/03/29 02:51:19;;;;;;;7.38;3.67;;;;;;;;;;7396751;19;20007;-77
2022/03/29 02:53:44;;;;;;;7.65;4.40;;;;;;;;;;7397222;19;20066;-78
2022/03/29 02:56:09;;;;;;;8.18;4.07;;;;;;;;;;7393333;19;20031;-77
2022/03/29 02:58:35;;;;;;;6.53;4.10;;;;;;;;;;7393685;19;20344;-77
2022/03/29 03:01:00;;;;;;;9.23;4.85;;;;;;;;;;7392682;19;20078;-78
2022/03/29 03:03:26;;;;;;;7.93;4.00;;;;;;;;;;7393585;19;20431;-77
2022/03/29 03:05:51;;;;;;;7.05;3.53;;;;;;;;;;7394065;19;20458;-77
2022/03/29 03:08:16;;;;;;;8.40;3.70;;;;;;;;;;7392775;19;20006;-78
2022/03/29 03:10:42;;;;;;;9.27;4.35;;;;;;;;;;7400013;19;20062;-77
2022/03/29 03:13:07;;;;;;;7.60;4.07;;;;;;;;;;7391650;19;20014;-77
2022/03/29 03:15:32;;;;;;;10.25;4.40;;;;;;;;;;7395163;19;20024;-77
2022/03/29 03:17:58;;;;;;;11.48;4.15;;;;;;;;;;7394525;19;20012;-77
2022/03/29 03:20:24;;;;;;;9.52;3.90;;;;;;;;;;7390990;19;20077;-77
2022/03/29 03:22:50;;;;;;;7.80;4.03;;;;;;;;;;7394238;19;20047;-77
2022/03/29 03:25:16;;;;;;;8.00;4.00;;;;;;;;;;7392318;19;20377;-77
2022/03/29 03:27:41;;;;;;;8.60;3.95;;;;;;;;;;7390901;19;20034;-77
2022/03/29 03:30:10;;;;;;;9.13;4.07;;;;;;;;;;7390696;19;20508;-77
2022/03/29 03:32:36;;;;;;;7.80;3.67;;;;;;;;;;7391940;19;20119;-77
2022/03/29 03:35:01;;;;;;;11.77;4.75;;;;;;;;;;7395038;19;20041;-79
2022/03/29 03:37:27;;;;;;;9.48;4.70;;;;;;;;;;7396768;19;20403;-77
2022/03/29 03:39:52;;;;;;;8.70;4.43;;;;;;;;;;7393591;19;20002;-78
2022/03/29 03:42:20;;;;;;;14.07;4.53;;;;;;;;;;7397884;19;20018;-78
2022/03/29 03:44:45;;;;;;;10.27;3.88;;;;;;;;;;7400622;19;20018;-78
2022/03/29 03:47:11;;;;;;;7.43;3.58;;;;;;;;;;7397149;19;20364;-78
2022/03/29 03:49:38;;;;;;;14.45;4.60;;;;;;;;;;7395683;19;20026;-78
2022/03/29 03:52:05;;;;;;;11.20;4.10;;;;;;;;;;7394314;19;20055;-79
2022/03/29 03:54:32;;;;;;;9.43;4.05;;;;;;;;;;7397939;19;20117;-78
2022/03/29 03:56:57;;;;;;;6.65;3.72;;;;;;;;;;7399550;19;20006;-78
2022/03/29 03:59:23;;;;;;;10.50;4.20;;;;;;;;;;7390830;19;20032;-77
2022/03/29 04:01:49;;;;;;;11.23;4.90;;;;;;;;;;7391963;19;20006;-77
2022/03/29 04:04:14;;;;;;;7.97;3.75;;;;;;;;;;7389746;19;20158;-78
2022/03/29 04:06:39;;;;;;;7.43;4.15;;;;;;;;;;7391543;19;20034;-78
2022/03/29 04:09:05;;;;;;;9.75;3.85;;;;;;;;;;7392433;19;20020;-77
2022/03/29 04:11:30;;;;;;;8.85;4.13;;;;;;;;;;7390463;19;20050;-77
2022/03/29 04:13:56;;;;;;;7.53;3.85;;;;;;;;;;7391065;19;20010;-77
2022/03/29 04:16:22;;;;;;;6.82;3.58;;;;;;;;;;7389373;19;20014;-78
2022/03/29 04:18:47;;;;;;;7.28;4.00;;;;;;;;;;7389287;19;20410;-78
2022/03/29 04:21:12;;;;;;;7.07;3.65;;;;;;;;;;7389672;19;20009;-78
2022/03/29 04:23:38;;;;;;;8.98;4.05;;;;;;;;;;7392195;19;20450;-77
2022/03/29 04:26:04;;;;;;;7.82;3.83;;;;;;;;;;7389048;19;20057;-77
2022/03/29 04:28:31;;;;;;;6.10;3.67;;;;;;;;;;7390805;19;20359;-77
2022/03/29 04:30:58;;;;;;;7.82;3.35;;;;;;;;;;7394503;19;20225;-77
2022/03/29 04:33:23;;;;;;;5.70;3.20;;;;;;;;;;7391227;19;20090;-77
2022/03/29 04:35:49;;;;;;;9.10;3.92;;;;;;;;;;7389801;19;20382;-77
2022/03/29 04:38:14;;;;;;;6.97;3.70;;;;;;;;;;7390363;19;20018;-78
2022/03/29 04:40:40;;;;;;;7.38;3.90;;;;;;;;;;7394417;19;20031;-78
2022/03/29 04:43:05;;;;;;;4.28;2.72;;;;;;;;;;7397205;19;20354;-78
2022/03/29 04:45:30;;;;;;;7.95;3.58;;;;;;;;;;7396645;19;20006;-78
2022/03/29 04:47:56;;;;;;;10.13;3.80;;;;;;;;;;7396824;19;20083;-78
2022/03/29 04:50:21;;;;;;;7.25;3.83;;;;;;;;;;7395420;19;20014;-77
2022/03/29 04:52:47;;;;;;;7.78;3.95;;;;;;;;;;7394814;19;20006;-79
2022/03/29 04:55:17;;;;;;;8.75;3.47;;;;;;;;;;7396823;19;20995;-78
2022/03/29 04:57:43;;;;;;;9.95;4.53;;;;;;;;;;7394009;19;20014;-78
2022/03/29 05:00:12;;;;;;;8.63;5.07;;;;;;;;;;7394614;19;20007;-79
2022/03/29 05:02:37;;;;;;;9.50;4.25;;;;;;;;;;7391890;19;20010;-78
2022/03/29 05:05:03;;;;;;;10.95;5.07;;;;;;;;;;7395948;19;20017;-78
2022/03/29 05:07:28;;;;;;;8.13;4.43;;;;;;;;;;7391722;19;20336;-79
2022/03/29 05:09:54;;;;;;;6.35;3.47;;;;;;;;;;7394642;19;20023;-78
2022/03/29 05:12:20;;;;;;;10.25;4.38;;;;;;;;;;7391271;19;20355;-78
2022/03/29 05:14:45;;;;;;;9.02;4.78;;;;;;;;;;7395195;19;20031;-78
2022/03/29 05:17:10;;;;;;;10.82;4.78;;;;;;;;;;7394918;19;20003;-78
2022/03/29 05:19:36;;;;;;;13.30;4.70;;;;;;;;;;7394587;19;20010;-77
2022/03/29 05:22:02;;;;;;;7.03;3.95;;;;;;;;;;7390375;19;20074;-78
2022/03/29 05:24:27;;;;;;;10.32;4.50;;;;;;;;;;7393928;19;20003;-79
2022/03/29 05:26:53;;;;;;;7.53;3.72;;;;;;;;;;7394415;19;20078;-78
2022/03/29 05:29:18;;;;;;;9.57;4.28;;;;;;;;;;7395311;19;19999;-78
2022/03/29 05:31:43;;;;;;;9.18;4.18;;;;;;;;;;7395199;19;20422;-79
2022/03/29 05:34:09;;;;;;;8.00;3.83;;;;;;;;;;7396734;19;20036;-78
2022/03/29 05:36:35;;;;;;;7.85;3.85;;;;;;;;;;7391104;19;20011;-78
2022/03/29 05:39:01;;;;;;;13.48;4.22;;;;;;;;;;7387293;19;20006;-78
2022/03/29 05:41:26;;;;;;;15.43;4.57;;;;;;;;;;7388235;19;20418;-77
2022/03/29 05:43:53;;;;;;;15.07;4.18;;;;;;;;;;7388739;19;20006;-77
2022/03/29 05:49:02;;;;;;;7.35;3.42;;;;;;;;;;7396971;19;20009;-77
2022/03/29 05:51:29;;;;;;;10.45;4.88;;;;;;;;;;7392652;19;20014;-77
2022/03/29 05:53:56;;;;;;;13.35;4.53;;;;;;;;;;7399306;19;20072;-78
2022/03/29 05:56:22;;;;;;;13.35;4.35;;;;;;;;;;7397615;19;20002;-81
2022/03/29 05:58:47;;;;;;;10.05;4.88;;;;;;;;;;7396933;19;20011;-78
2022/03/29 06:01:13;;;;;;;13.85;4.75;;;;;;;;;;7398303;19;20335;-77
2022/03/29 06:03:39;;;;;;;9.90;4.63;;;;;;;;;;7401367;19;20113;-77
2022/03/29 06:06:05;;;;;;;8.57;3.70;;;;;;;;;;7401352;19;20060;-77
2022/03/29 06:08:33;;;;;;;7.03;4.20;;;;;;;;;;7401021;19;20473;-77
2022/03/29 06:10:58;;;;;;;9.90;4.10;;;;;;;;;;7397767;19;20010;-78
2022/03/29 06:13:25;;;;;;;5.55;3.47;;;;;;;;;;7404626;19;20498;-77
2022/03/29 06:15:51;;;;;;;8.10;4.63;;;;;;;;;;7405356;19;20015;-78
2022/03/29 06:18:16;;;;;;;7.38;3.25;;;;;;;;;;7405868;19;20457;-78
2022/03/29 06:20:41;;;;;;;11.20;4.68;;;;;;;;;;7399068;19;20028;-78
2022/03/29 06:23:06;;;;;;;7.38;3.72;;;;;;;;;;7398129;19;20015;-77
2022/03/29 06:25:32;;;;;;;17.17;4.25;;;;;;;;;;7403194;19;20319;-77
2022/03/29 06:27:58;;;;;;;7.05;4.10;;;;;;;;;;7398148;19;20002;-78
2022/03/29 06:30:23;;;;;;;9.52;4.20;;;;;;;;;;7397666;19;20721;-77
2022/03/29 06:32:53;;;;;;;5.93;3.15;;;;;;;;;;7400837;19;20014;-78
2022/03/29 06:35:26;;;;;;;5.03;3.25;;;;;;;;;;7397264;19;20126;-78
2022/03/29 06:37:55;;;;;;;9.70;4.68;;;;;;;;;;7400178;19;20007;-77
2022/03/29 06:40:22;;;;;;;6.65;3.53;;;;;;;;;;7393472;19;20014;-78
2022/03/29 06:42:51;;;;;;;5.60;3.42;;;;;;;;;;7399083;19;20009;-77
2022/03/29 06:45:17;;;;;;;13.45;4.40;;;;;;;;;;7403758;19;20491;-76
2022/03/29 06:47:43;;;;;;;9.43;4.15;;;;;;;;;;7402447;19;20014;-78
2022/03/29 06:50:10;;;;;;;9.57;4.68;;;;;;;;;;7403497;19;20028;-78
2022/03/29 06:52:37;;;;;;;11.10;5.15;;;;;;;;;;7400156;19;19995;-78
2022/03/29 06:55:04;;;;;;;9.32;5.15;;;;;;;;;;7403886;19;20014;-78
2022/03/29 06:57:29;;;;;;;14.82;5.57;;;;;;;;;;7401358;19;20007;-79
2022/03/29 06:59:55;;;;;;;13.07;5.45;;;;;;;;;;7400402;19;20013;-77
2022/03/29 07:02:20;;;;;;;12.68;5.68;;;;;;;;;;7395562;19;20419;-76
2022/03/29 07:04:46;;;;;;;10.48;4.70;;;;;;;;;;7401068;19;20469;-78
2022/03/29 07:07:11;;;;;;;15.35;5.53;;;;;;;;;;7400975;19;20003;-79
2022/03/29 07:12:21;;;;;;;10.00;5.88;;;;;;;;;;7401018;19;20026;-79
2022/03/29 07:14:47;;;;;;;13.15;5.80;;;;;;;;;;7401100;19;20034;-79
2022/03/29 07:17:15;;;;;;;11.95;6.13;;;;;;;;;;7400651;19;20014;-79
2022/03/29 07:19:40;;;;;;;18.10;6.53;;;;;;;;;;7401656;19;20019;-78
2022/03/29 07:22:06;;;;;;;15.32;6.53;;;;;;;;;;7401639;19;19995;-79
2022/03/29 07:24:31;;;;;;;15.55;6.28;;;;;;;;;;7403463;19;20073;-79
2022/03/29 07:26:57;;;;;;;12.02;5.63;;;;;;;;;;7400541;19;20022;-79
2022/03/29 07:29:22;;;;;;;10.93;5.93;;;;;;;;;;7401964;19;20010;-79
2022/03/29 07:31:48;;;;;;;9.60;5.72;;;;;;;;;;7399949;19;20006;-80
2022/03/29 07:34:13;;;;;;;11.50;5.95;;;;;;;;;;7402808;19;20054;-78
2022/03/29 07:36:39;;;;;;;12.77;6.30;;;;;;;;;;7401478;19;20018;-79
2022/03/29 07:39:05;;;;;;;12.05;5.50;;;;;;;;;;7399399;19;20051;-79
2022/03/29 07:41:32;;;;;;;13.57;5.28;;;;;;;;;;7398035;19;20031;-80
2022/03/29 07:43:58;;;;;;;17.95;7.28;;;;;;;;;;7390765;19;20002;-80
2022/03/29 07:46:23;;;;;;;12.43;6.60;;;;;;;;;;7394986;19;20002;-80
2022/03/29 07:48:49;;;;;;;17.27;6.20;;;;;;;;;;7399665;19;20010;-77
2022/03/29 07:51:16;;;;;;;11.07;5.00;;;;;;;;;;7398941;19;20474;-79
2022/03/29 07:53:41;;;;;;;17.52;6.47;;;;;;;;;;7397561;19;20036;-80
2022/03/29 07:56:07;;;;;;;12.00;6.30;;;;;;;;;;7403158;19;20450;-79
2022/03/29 07:58:32;;;;;;;16.65;6.43;;;;;;;;;;7397875;19;20035;-80
2022/03/29 08:00:57;;;;;;;13.65;6.55;;;;;;;;;;7395834;19;20580;-81
2022/03/29 08:03:23;;;;;;;20.45;7.78;;;;;;;;;;7406695;19;20035;-79
2022/03/29 08:05:50;;;;;;;14.18;7.70;;;;;;;;;;7402646;19;20352;-80
2022/03/29 08:08:16;;;;;;;10.77;6.35;;;;;;;;;;7406323;19;20010;-79
2022/03/29 08:10:43;;;;;;;12.95;6.47;;;;;;;;;;7406964;19;20006;-79
2022/03/29 08:13:14;;;;;;;15.63;6.82;;;;;;;;;;7405583;19;20006;-79
2022/03/29 08:15:40;;;;;;;24.98;7.55;;;;;;;;;;7411258;19;20010;-78
2022/03/29 08:18:07;;;;;;;13.35;6.32;;;;;;;;;;7412449;19;20007;-78
2022/03/29 08:20:32;;;;;;;20.08;7.13;;;;;;;;;;7404220;19;20003;-78
2022/03/29 08:23:01;;;;;;;17.02;6.95;;;;;;;;;;7401954;19;19998;-78
2022/03/29 08:25:29;;;;;;;15.35;6.65;;;;;;;;;;7401073;19;20062;-78
2022/03/29 08:27:56;;;;;;;17.00;7.25;;;;;;;;;;7398128;19;20007;-78
2022/03/29 08:30:22;;;;;;;15.32;6.93;;;;;;;;;;7395473;19;20304;-78
2022/03/29 08:32:47;;;;;;;12.50;7.15;;;;;;;;;;7391634;19;20041;-77
2022/03/29 08:35:13;;;;;;;23.85;6.78;;;;;;;;;;7395674;19;20049;-77
2022/03/29 08:37:39;;;;;;;15.23;6.90;;;;;;;;;;7397713;19;20001;-78
2022/03/29 08:40:09;;;;;;;14.65;6.85;;;;;;;;;;7401888;19;20010;-78
2022/03/29 08:42:35;;;;;;;14.50;6.63;;;;;;;;;;7405107;19;20023;-77
2022/03/29 08:45:05;;;;;;;13.82;6.97;;;;;;;;;;7399136;19;20011;-77
2022/03/29 08:47:31;;;;;;;16.58;7.72;;;;;;;;;;7391858;19;20372;-78
2022/03/29 08:49:56;;;;;;;19.23;8.00;;;;;;;;;;7402786;19;20034;-79
2022/03/29 08:52:22;;;;;;;16.33;6.70;;;;;;;;;;7405551;19;20010;-79
2022/03/29 08:54:49;;;;;;;12.82;6.45;;;;;;;;;;7411773;19;20006;-78
2022/03/29 08:57:14;;;;;;;13.82;6.25;;;;;;;;;;7415506;19;20002;-79
2022/03/29 08:59:41;;;;;;;14.52;7.47;;;;;;;;;;7421130;19;19998;-78
2022/03/29 09:02:16;;;;;;;17.20;7.30;;;;;;;;;;7421352;19;20034;-78
2022/03/29 09:04:43;;;;;;;11.15;5.95;;;;;;;;;;7423716;19;20027;-79
2022/03/29 09:07:08;;;;;;;20.05;7.38;;;;;;;;;;7417277;19;20010;-77
2022/03/29 09:09:38;;;;;;;15.95;7.05;;;;;;;;;;7420917;19;20016;-79
2022/03/29 09:12:17;;;;;;;15.38;7.20;;;;;;;;;;7414107;19;20003;-76
2022/03/29 09:14:51;;;;;;;11.63;6.90;;;;;;;;;;7419363;19;19999;-76
2022/03/29 09:17:31;;;;;;;16.75;6.75;;;;;;;;;;7418377;19;20001;-77
2022/03/29 09:20:00;;;;;;;14.15;6.07;;;;;;;;;;7422716;19;19999;-77
2022/03/29 09:22:44;;;;;;;13.68;6.78;;;;;;;;;;7416612;19;20006;-78
2022/03/29 09:25:15;;;;;;;18.15;7.45;;;;;;;;;;7419891;19;20015;-75
2022/03/29 09:27:53;;;;;;;23.23;8.27;;;;;;;;;;7413785;19;20009;-75
2022/03/29 09:30:20;;;;;;;11.70;6.63;;;;;;;;;;7419037;19;20010;-75
2022/03/29 09:32:52;;;;;;;12.07;7.18;;;;;;;;;;7420825;19;20018;-74
2022/03/29 09:35:18;;;;;;;15.82;6.78;;;;;;;;;;7423635;19;20424;-75
2022/03/29 09:37:45;;;;;;;17.60;8.00;;;;;;;;;;7422648;19;20088;-78
2022/03/29 09:40:12;;;;;;;14.77;7.32;;;;;;;;;;7416107;19;19994;-77
2022/03/29 09:42:39;;;;;;;15.52;7.57;;;;;;;;;;7416440;19;20010;-76
2022/03/29 09:45:05;;;;;;;13.63;7.75;;;;;;;;;;7418369;19;20010;-76
2022/03/29 09:47:30;;;;;;;14.80;7.55;;;;;;;;;;7420000;19;20713;-76
2022/03/29 09:50:01;;;;;;;14.10;7.35;;;;;;;;;;7410458;19;20006;-78
2022/03/29 09:52:31;;;;;;;18.95;6.80;;;;;;;;;;7418134;19;20025;-75
2022/03/29 09:55:09;;;;;;;14.35;7.18;;;;;;;;;;7419220;19;20651;-75
2022/03/29 09:57:40;;;;;;;14.75;6.60;;;;;;;;;;7421871;19;19998;-75
2022/03/29 10:00:08;;;;;;;15.77;7.45;;;;;;;;;;7417109;19;19995;-76
2022/03/29 10:02:35;;;;;;;15.65;7.03;;;;;;;;;;7419050;19;20021;-76
2022/03/29 10:05:01;;;;;;;13.88;7.00;;;;;;;;;;7421954;19;20118;-76
2022/03/29 10:07:27;;;;;;;13.50;7.10;;;;;;;;;;7420202;19;19999;-77
2022/03/29 10:09:52;;;;;;;13.55;7.13;;;;;;;;;;7420405;19;20014;-77
2022/03/29 10:12:22;;;;;;;13.45;6.55;;;;;;;;;;7417936;19;19991;-76
2022/03/29 10:14:47;;;;;;;11.95;6.53;;;;;;;;;;7415805;19;20042;-77
2022/03/29 10:17:15;;;;;;;13.63;7.15;;;;;;;;;;7403830;19;20014;-79
2022/03/29 10:19:44;;;;;;;14.95;6.82;;;;;;;;;;7405637;19;20025;-81
2022/03/29 10:22:11;;;;;;;12.70;6.88;;;;;;;;;;7401865;19;20043;-80
2022/03/29 10:24:38;;;;;;;12.88;6.50;;;;;;;;;;7398596;19;20011;-81
2022/03/29 10:27:05;;;;;;;17.70;7.07;;;;;;;;;;7404446;19;20044;-80
2022/03/29 10:29:30;;;;;;;13.85;6.90;;;;;;;;;;7400248;19;20010;-80
2022/03/29 10:32:02;;;;;;;13.48;6.53;;;;;;;;;;7403453;19;20121;-78
2022/03/29 10:34:45;;;;;;;16.67;6.95;;;;;;;;;;7407272;19;21062;-80
2022/03/29 10:37:16;;;;;;;12.65;7.30;;;;;;;;;;7415146;19;20104;-81
2022/03/29 10:39:41;;;;;;;13.90;6.55;;;;;;;;;;7411502;19;20010;-77
2022/03/29 10:42:26;;;;;;;12.45;6.65;;;;;;;;;;7412154;19;20023;-78
2022/03/29 10:45:06;;;;;;;11.05;5.85;;;;;;;;;;7413320;19;20006;-80
2022/03/29 10:47:32;;;;;;;11.30;6.60;;;;;;;;;;7414795;19;20473;-80
2022/03/29 10:49:58;;;;;;;13.23;6.28;;;;;;;;;;7411588;19;19994;-81
2022/03/29 10:52:24;;;;;;;13.00;6.68;;;;;;;;;;7404125;19;20011;-80
2022/03/29 10:54:50;;;;;;;10.67;6.00;;;;;;;;;;7398990;19;20002;-80
2022/03/29 10:57:25;;;;;;;15.40;6.05;;;;;;;;;;7405652;19;20272;-77
2022/03/29 10:59:58;;;;;;;12.70;7.00;;;;;;;;;;7402463;19;20552;-80
2022/03/29 11:02:25;;;;;;;10.45;5.90;;;;;;;;;;7401366;19;20035;-80
2022/03/29 11:05:10;;;;;;;12.88;7.38;;;;;;;;;;7400622;19;20404;-79
2022/03/29 11:07:59;;;;;;;12.00;5.72;;;;;;;;;;7401506;19;20023;-77
2022/03/29 11:10:42;;;;;;;12.15;7.25;;;;;;;;;;7399384;19;20015;-78
2022/03/29 11:13:26;;;;;;;17.17;6.55;;;;;;;;;;7402997;19;20006;-79
2022/03/29 11:15:53;;;;;;;10.38;6.32;;;;;;;;;;7405894;19;20003;-79
2022/03/29 11:18:30;;;;;;;14.77;6.97;;;;;;;;;;7402122;19;20023;-80
2022/03/29 11:21:02;;;;;;;14.95;6.72;;;;;;;;;;7397510;19;20017;-77
2022/03/29 11:23:33;;;;;;;11.70;7.07;;;;;;;;;;7401191;19;20035;-79
2022/03/29 11:26:26;;;;;;;12.70;6.70;;;;;;;;;;7402551;19;19999;-80
2022/03/29 11:28:54;;;;;;;15.82;7.45;;;;;;;;;;7405800;19;20006;-80
2022/03/29 11:31:21;;;;;;;11.60;6.72;;;;;;;;;;7401267;19;20031;-80
2022/03/29 11:33:52;;;;;;;11.77;7.05;;;;;;;;;;7400204;19;20094;-81
2022/03/29 11:36:19;;;;;;;16.08;6.95;;;;;;;;;;7398835;19;19999;-80
2022/03/29 11:38:44;;;;;;;13.90;7.72;;;;;;;;;;7407418;19;20019;-77
2022/03/29 11:41:30;;;;;;;12.30;6.97;;;;;;;;;;7406526;19;20012;-81
2022/03/29 11:44:01;;;;;;;11.27;6.63;;;;;;;;;;7407129;19;20006;-82
2022/03/29 11:46:50;;;;;;;15.70;6.55;;;;;;;;;;7406101;19;20445;-79
2022/03/29 11:49:17;;;;;;;14.20;7.30;;;;;;;;;;7405822;19;20017;-81
2022/03/29 11:51:43;;;;;;;11.77;6.03;;;;;;;;;;7396339;19;20011;-81
2022/03/29 11:54:08;;;;;;;11.48;6.25;;;;;;;;;;7393659;19;20023;-81
2022/03/29 11:56:37;;;;;;;13.48;6.57;;;;;;;;;;7403932;19;20038;-81
2022/03/29 11:59:02;;;;;;;8.65;5.63;;;;;;;;;;7401827;19;20039;-78
2022/03/29 12:01:29;;;;;;;13.15;5.95;;;;;;;;;;7398064;19;20007;-80
2022/03/29 12:03:59;;;;;;;12.88;6.65;;;;;;;;;;7400554;19;20466;-81
2022/03/29 12:06:27;;;;;;;13.32;7.63;;;;;;;;;;7401349;19;20006;-81
2022/03/29 12:09:03;;;;;;;12.32;6.05;;;;;;;;;;7397425;19;20009;-81
2022/03/29 12:11:31;;;;;;;10.40;6.68;;;;;;;;;;7399568;19;20024;-82
2022/03/29 12:14:08;;;;;;;15.18;7.93;;;;;;;;;;7400605;19;20011;-80
2022/03/29 12:16:37;;;;;;;11.63;7.25;;;;;;;;;;7394092;19;20110;-81
2022/03/29 12:19:09;;;;;;;12.13;6.88;;;;;;;;;;7399841;19;20006;-81
2022/03/29 12:21:35;;;;;;;10.30;6.10;;;;;;;;;;7397975;19;20352;-81
2022/03/29 12:24:06;;;;;;;10.85;6.22;;;;;;;;;;7401144;19;20039;-80
2022/03/29 12:26:32;;;;;;;10.98;6.20;;;;;;;;;;7400973;19;20455;-81
2022/03/29 12:28:59;;;;;;;11.25;6.97;;;;;;;;;;7400432;19;20029;-81
2022/03/29 12:31:27;;;;;;;11.95;6.30;;;;;;;;;;7402361;19;19998;-81
2022/03/29 12:33:53;;;;;;;12.55;6.85;;;;;;;;;;7396287;19;20672;-80
2022/03/29 12:36:19;;;;;;;16.20;7.47;;;;;;;;;;7403092;19;20015;-80
2022/03/29 12:38:52;;;;;;;12.40;6.47;;;;;;;;;;7400963;19;20034;-80
2022/03/29 12:41:38;;;;;;;13.57;7.10;;;;;;;;;;7400644;19;20007;-81
2022/03/29 12:44:11;;;;;;;11.52;6.80;;;;;;;;;;7402648;19;20041;-80
2022/03/29 12:46:38;;;;;;;12.57;7.00;;;;;;;;;;7400302;19;20014;-81
2022/03/29 12:49:04;;;;;;;11.95;6.47;;;;;;;;;;7396904;19;20485;-80
2022/03/29 12:51:37;;;;;;;13.85;6.10;;;;;;;;;;7394246;19;20014;-80
2022/03/29 12:54:08;;;;;;;13.05;6.43;;;;;;;;;;7391389;19;20699;-79
2022/03/29 12:56:35;;;;;;;12.30;6.22;;;;;;;;;;7392979;19;20014;-80
2022/03/29 12:59:21;;;;;;;15.13;6.88;;;;;;;;;;7393308;19;20473;-80
2022/03/29 13:01:46;;;;;;;;;;;;;;;;;;7420554;19;20009;-78
2022/03/29 13:04:11;;;;;;;11.37;6.27;;;;;;;;;;7392938;19;19994;-79
2022/03/29 13:06:42;;;;;;;9.90;6.47;;;;;;;;;;7382502;19;20862;-80
2022/03/29 13:09:11;;;;;;;13.15;6.65;;;;;;;;;;7385088;19;20644;-80
2022/03/29 13:11:37;;;;;;;13.23;6.97;;;;;;;;;;7391574;19;20007;-80
2022/03/29 13:14:04;;;;;;;11.98;6.05;;;;;;;;;;7396331;19;20062;-80
2022/03/29 13:16:30;;;;;;;17.70;6.93;;;;;;;;;;7389348;19;20015;-79
2022/03/29 13:18:56;;;;;;;16.92;7.60;;;;;;;;;;7396571;19;20014;-80
2022/03/29 13:21:28;;;;;;;10.77;6.32;;;;;;;;;;7394184;19;20011;-79
2022/03/29 13:24:04;;;;;;;11.38;6.38;;;;;;;;;;7396445;19;20498;-80
2022/03/29 13:26:31;;;;;;;14.65;5.95;;;;;;;;;;7394713;19;20003;-79
2022/03/29 13:28:57;;;;;;;11.52;6.00;;;;;;;;;;7399646;19;20034;-79
2022/03/29 13:31:24;;;;;;;13.70;6.20;;;;;;;;;;7397148;19;20006;-78
2022/03/29 13:33:52;;;;;;;11.43;5.95;;;;;;;;;;7397292;19;20025;-79
2022/03/29 13:36:19;;;;;;;12.68;6.40;;;;;;;;;;7399772;19;20011;-79
2022/03/29 13:38:47;;;;;;;14.27;4.65;;;;;;;;;;7400963;19;20014;-79
2022/03/29 13:41:12;;;;;;;23.33;5.53;;;;;;;;;;7393057;19;20006;-80
2022/03/29 13:43:39;;;;;;;14.90;5.30;;;;;;;;;;7395747;19;20347;-79
2022/03/29 13:46:06;;;;;;;9.25;4.28;;;;;;;;;;7400176;19;19998;-80
2022/03/29 13:48:33;;;;;;;16.00;5.22;;;;;;;;;;7397376;19;20107;-78
2022/03/29 13:51:00;;;;;;;17.25;5.63;;;;;;;;;;7395357;19;20363;-78
2022/03/29 13:53:25;;;;;;;9.20;5.00;;;;;;;;;;7397208;19;20015;-78
2022/03/29 13:55:51;;;;;;;11.25;4.53;;;;;;;;;;7391858;19;20017;-80
2022/03/29 13:58:16;;;;;;;10.77;4.65;;;;;;;;;;7390287;19;20027;-81
2022/03/29 14:00:42;;;;;;;16.77;4.72;;;;;;;;;;7388470;19;20014;-78
2022/03/29 14:03:08;;;;;;;11.77;4.70;;;;;;;;;;7399604;19;20005;-77
2022/03/29 14:05:38;;;;;;;10.15;4.72;;;;;;;;;;7393037;19;20660;-80
2022/03/29 14:08:04;;;;;;;12.48;4.10;;;;;;;;;;7395138;19;20025;-77
2022/03/29 14:10:30;;;;;;;9.35;3.95;;;;;;;;;;7399013;19;20017;-78
2022/03/29 14:12:56;;;;;;;11.23;4.05;;;;;;;;;;7403766;19;20018;-78
2022/03/29 14:15:21;;;;;;;10.23;3.42;;;;;;;;;;7403606;19;20435;-79
2022/03/29 14:17:47;;;;;;;8.75;3.78;;;;;;;;;;7398987;19;20583;-78
2022/03/29 14:20:14;;;;;;;19.60;3.78;;;;;;;;;;7396922;19;20028;-78
2022/03/29 14:22:39;;;;;;;11.63;3.63;;;;;;;;;;7406235;19;20018;-79
2022/03/29 14:25:05;;;;;;;16.10;4.03;;;;;;;;;;7404278;19;20399;-77
2022/03/29 14:27:31;;;;;;;10.80;3.28;;;;;;;;;;7398125;19;20014;-80
2022/03/29 14:29:56;;;;;;;21.95;3.33;;;;;;;;;;7402386;19;20349;-78
2022/03/29 14:32:22;;;;;;;10.05;3.47;;;;;;;;;;7399554;19;20086;-82
2022/03/29 14:34:48;;;;;;;11.38;2.58;;;;;;;;;;7399738;19;20007;-78
2022/03/29 14:37:14;;;;;;;16.38;3.67;;;;;;;;;;7400626;19;20402;-77
2022/03/29 14:39:41;;;;;;;19.23;3.63;;;;;;;;;;7402026;19;20013;-80
2022/03/29 14:42:06;;;;;;;12.98;3.33;;;;;;;;;;7402178;19;20009;-79
2022/03/29 14:44:32;;;;;;;8.02;3.17;;;;;;;;;;7402688;19;20006;-79
2022/03/29 14:46:57;;;;;;;9.32;3.67;;;;;;;;;;7403284;19;20002;-78